Time;durP1;ratioP1;P1;durP2;ratioP2;P2;SDS_P1;SDS_P2;PMS_P1;PMS_P2;Temp;Humidity;BMP_temperature;BMP_pressure;BME280_temperature;BME280_humidity;BME280_pressure;Samples;Min_cycle;Max_cycle;Signal;HPM_P1;HPM_P2
2021/07/17 00:02:18;;;;;;;7.18;6.50;;;;;;;19.98;59.89;102017.19;5979041;29;20304;-75
2021/07/17 00:05:23;;;;;;;9.93;6.50;;;;;;;20.06;60.28;102007.63;5980149;29;20232;-75
2021/07/17 00:08:29;;;;;;;10.40;6.20;;;;;;;19.95;60.53;102007.44;5979170;29;20197;-75
2021/07/17 00:11:33;;;;;;;10.15;6.70;;;;;;;19.86;60.83;102014.50;5979131;29;20200;-75
2021/07/17 00:14:38;;;;;;;7.07;6.00;;;;;;;19.83;60.29;102009.47;5979941;29;20197;-75
2021/07/17 00:17:42;;;;;;;10.25;6.13;;;;;;;19.86;60.21;102005.34;5980203;29;20274;-75
2021/07/17 00:20:48;;;;;;;9.95;6.38;;;;;;;19.80;60.87;102003.56;5979170;29;20227;-75
2021/07/17 00:23:53;;;;;;;7.65;6.57;;;;;;;19.76;61.70;101992.19;5980086;29;20197;-75
2021/07/17 00:26:57;;;;;;;9.18;6.32;;;;;;;19.70;61.61;102004.25;5980138;29;20256;-75
2021/07/17 00:30:02;;;;;;;7.53;6.72;;;;;;;19.69;61.82;101997.03;5979992;29;20222;-75
2021/07/17 00:33:06;;;;;;;8.05;6.88;;;;;;;19.60;62.28;102000.44;5978707;29;20524;-75
2021/07/17 00:36:13;;;;;;;8.95;6.95;;;;;;;19.57;62.98;101999.00;5979020;29;20488;-76
2021/07/17 00:39:18;;;;;;;12.23;6.82;;;;;;;19.62;62.18;101996.34;5979918;29;20265;-74
2021/07/17 00:42:22;;;;;;;7.05;6.25;;;;;;;19.15;62.52;102001.22;5978760;29;20260;-75
2021/07/17 00:45:27;;;;;;;7.78;6.65;;;;;;;19.39;61.97;102003.94;5979898;29;20297;-74
2021/07/17 00:48:31;;;;;;;7.10;6.40;;;;;;;19.22;62.68;102012.13;5978750;29;20458;-74
2021/07/17 00:51:36;;;;;;;7.05;6.35;;;;;;;19.19;62.87;102007.09;5979799;29;20193;-74
2021/07/17 00:54:44;;;;;;;7.50;6.50;;;;;;;19.28;62.60;101997.31;5978568;29;20390;-75
2021/07/17 00:57:50;;;;;;;12.77;6.78;;;;;;;19.34;63.13;102007.38;5978412;29;20445;-75
2021/07/17 01:00:56;;;;;;;9.27;6.60;;;;;;;19.41;61.46;102004.53;5978583;29;20502;-75
2021/07/17 01:04:00;;;;;;;7.85;7.03;;;;;;;19.43;62.07;101996.81;5993799;24;20311;-75
2021/07/17 01:07:05;;;;;;;8.60;6.97;;;;;;;19.42;62.50;101997.88;5985499;29;20197;-76
2021/07/17 01:10:12;;;;;;;8.60;6.90;;;;;;;19.44;62.46;101993.78;5985445;29;20200;-76
2021/07/17 01:13:17;;;;;;;10.10;7.05;;;;;;;19.47;62.72;102004.34;5983986;29;20215;-76
2021/07/17 01:16:21;;;;;;;7.40;6.70;;;;;;;19.44;63.13;101996.53;5982873;29;20215;-76
2021/07/17 01:19:26;;;;;;;8.27;7.40;;;;;;;19.41;63.31;101988.75;5983541;29;20472;-76
2021/07/17 01:22:32;;;;;;;8.43;7.15;;;;;;;19.30;64.18;101989.63;5984283;29;20193;-75
2021/07/17 01:25:36;;;;;;;12.45;6.57;;;;;;;19.25;63.88;101986.75;5983366;29;20289;-76
2021/07/17 01:28:41;;;;;;;8.90;6.63;;;;;;;19.24;63.84;101999.72;5984473;29;20193;-75
2021/07/17 01:31:46;;;;;;;9.35;6.60;;;;;;;19.27;64.20;101987.34;5984054;29;20197;-76
2021/07/17 01:34:50;;;;;;;8.02;7.05;;;;;;;19.21;63.93;101999.38;5984168;29;20193;-76
2021/07/17 01:37:55;;;;;;;7.70;6.85;;;;;;;19.24;63.42;101998.88;5983112;29;20433;-76
2021/07/17 01:41:00;;;;;;;7.35;6.40;;;;;;;19.24;62.91;101990.59;5984061;29;20280;-76
2021/07/17 01:44:05;;;;;;;6.93;6.22;;;;;;;19.28;62.86;101994.56;5983562;29;20197;-76
2021/07/17 01:47:14;;;;;;;9.50;6.75;;;;;;;19.24;62.65;102004.41;5984299;29;20201;-76
2021/07/17 01:50:18;;;;;;;9.63;6.63;;;;;;;19.16;62.56;102002.03;5984376;29;20197;-76
2021/07/17 01:53:23;;;;;;;8.55;6.75;;;;;;;19.10;63.24;102003.88;5984280;29;20193;-77
2021/07/17 01:56:28;;;;;;;7.60;6.72;;;;;;;19.11;63.16;101999.16;5983326;29;20193;-76
2021/07/17 01:59:36;;;;;;;10.90;6.45;;;;;;;19.02;64.04;101995.13;5983899;29;20221;-76
2021/07/17 02:02:40;;;;;;;9.63;6.75;;;;;;;18.90;63.11;102003.44;5982652;29;20303;-75
2021/07/17 02:05:45;;;;;;;12.10;6.70;;;;;;;18.90;62.56;102005.38;5983866;29;20200;-76
2021/07/17 02:08:51;;;;;;;6.90;6.25;;;;;;;18.91;62.28;101999.59;5982251;29;20425;-75
2021/07/17 02:11:55;;;;;;;7.65;6.95;;;;;;;18.92;62.83;102006.81;5983881;29;20263;-76
2021/07/17 02:14:59;;;;;;;8.38;6.53;;;;;;;18.90;63.18;101997.09;5982980;29;20256;-76
2021/07/17 02:18:04;;;;;;;9.15;6.70;;;;;;;18.90;62.74;101997.09;5981889;29;20491;-77
2021/07/17 02:21:09;;;;;;;8.20;6.50;;;;;;;18.84;63.08;101992.53;5982153;29;20523;-76
2021/07/17 02:24:15;;;;;;;7.47;6.10;;;;;;;18.81;63.39;101993.00;5983230;29;20197;-76
2021/07/17 02:27:19;;;;;;;6.95;6.22;;;;;;;18.78;63.24;101997.09;5982585;29;20256;-76
2021/07/17 02:30:27;;;;;;;7.80;6.47;;;;;;;18.82;63.34;101990.00;5983019;29;20300;-76
2021/07/17 02:33:31;;;;;;;7.43;6.72;;;;;;;18.84;63.25;101987.00;5983805;29;20266;-76
2021/07/17 02:36:35;;;;;;;6.57;5.97;;;;;;;18.91;63.00;101990.47;5983435;29;20242;-76
2021/07/17 02:39:41;;;;;;;6.68;6.28;;;;;;;18.83;62.95;101985.31;5983525;29;20193;-76
2021/07/17 02:42:47;;;;;;;10.73;6.20;;;;;;;18.88;62.97;101986.25;5983948;29;20193;-76
2021/07/17 02:45:52;;;;;;;13.88;6.80;;;;;;;18.82;63.24;101978.97;5983674;29;20379;-76
2021/07/17 02:48:56;;;;;;;8.38;6.55;;;;;;;18.83;63.48;101968.72;5983717;29;20241;-76
2021/07/17 02:52:01;;;;;;;8.00;6.78;;;;;;;18.81;63.51;101977.25;5982964;29;20266;-76
2021/07/17 02:55:08;;;;;;;6.38;5.97;;;;;;;18.72;63.62;101979.56;5982629;29;20193;-76
2021/07/17 02:58:12;;;;;;;6.95;6.20;;;;;;;18.79;63.16;101968.38;5982982;29;20193;-76
2021/07/17 03:01:17;;;;;;;9.38;6.30;;;;;;;18.82;63.45;101967.06;5982669;29;20223;-76
2021/07/17 03:04:23;;;;;;;7.00;6.40;;;;;;;18.72;63.22;101974.03;5983256;29;20264;-76
2021/07/17 03:07:27;;;;;;;7.18;6.40;;;;;;;18.68;63.43;101972.84;5982712;29;20402;-76
2021/07/17 03:10:33;;;;;;;9.23;6.28;;;;;;;18.61;63.63;101966.63;5981561;29;20228;-76
2021/07/17 03:13:37;;;;;;;6.90;6.30;;;;;;;18.75;63.74;101962.50;5982275;29;20480;-76
2021/07/17 03:16:42;;;;;;;6.65;5.95;;;;;;;18.86;63.48;101969.06;5983384;29;20386;-76
2021/07/17 03:19:46;;;;;;;10.07;6.30;;;;;;;18.88;63.51;101963.28;5982597;29;20252;-76
2021/07/17 03:22:50;;;;;;;11.30;6.18;;;;;;;18.73;63.54;101966.56;5982800;29;20297;-76
2021/07/17 03:25:56;;;;;;;7.03;6.40;;;;;;;18.83;63.44;101968.72;5982082;29;20275;-76
2021/07/17 03:29:00;;;;;;;7.38;6.25;;;;;;;18.79;64.42;101962.00;5982981;29;20197;-76
2021/07/17 03:32:05;;;;;;;7.35;6.60;;;;;;;18.80;64.81;101961.75;5982994;29;20220;-76
2021/07/17 03:35:10;;;;;;;6.93;6.25;;;;;;;18.90;65.04;101963.91;5982523;29;20188;-76
2021/07/17 03:38:14;;;;;;;6.47;5.93;;;;;;;18.97;65.01;101964.59;5982601;29;20192;-76
2021/07/17 03:41:20;;;;;;;6.60;6.00;;;;;;;19.03;65.15;101952.56;5983224;29;20220;-76
2021/07/17 03:44:27;;;;;;;10.18;6.20;;;;;;;19.00;65.30;101964.13;5983189;29;20193;-76
2021/07/17 03:47:31;;;;;;;10.00;6.30;;;;;;;19.01;64.77;101949.19;5981959;29;20209;-76
2021/07/17 03:50:36;;;;;;;9.18;6.07;;;;;;;19.15;64.04;101939.53;5982258;29;20197;-76
2021/07/17 03:53:43;;;;;;;10.90;6.43;;;;;;;19.24;64.75;101943.56;5981553;29;20629;-76
2021/07/17 03:56:48;;;;;;;6.65;5.95;;;;;;;19.26;64.82;101944.13;5995288;29;20617;-75
2021/07/17 03:59:53;;;;;;;7.72;6.18;;;;;;;19.24;64.52;101938.88;5981950;29;20272;-75
2021/07/17 04:02:57;;;;;;;7.88;6.15;;;;;;;19.32;64.65;101937.63;5980507;29;20252;-76
2021/07/17 04:06:02;;;;;;;8.98;6.53;;;;;;;19.32;64.91;101929.31;5981243;29;20193;-76
2021/07/17 04:09:07;;;;;;;7.22;6.13;;;;;;;19.40;65.20;101931.72;5980631;29;20368;-76
2021/07/17 04:12:12;;;;;;;6.93;6.15;;;;;;;19.48;64.97;101945.16;5980412;29;20578;-76
2021/07/17 04:15:17;;;;;;;9.13;5.90;;;;;;;19.39;64.76;101931.97;5981075;29;20381;-75
2021/07/17 04:18:23;;;;;;;7.18;6.40;;;;;;;19.51;64.68;101933.59;5980281;29;20193;-77
2021/07/17 04:21:27;;;;;;;6.53;6.03;;;;;;;19.58;66.45;101937.03;5980853;29;20273;-77
2021/07/17 04:24:31;;;;;;;7.50;5.97;;;;;;;19.54;64.95;101916.47;5980826;29;20257;-77
2021/07/17 04:27:37;;;;;;;7.95;6.80;;;;;;;19.66;64.78;101928.31;5981077;29;20201;-75
2021/07/17 04:30:42;;;;;;;6.68;5.90;;;;;;;19.62;64.68;101926.31;5981110;29;20274;-75
2021/07/17 04:33:46;;;;;;;6.78;6.05;;;;;;;19.77;64.92;101921.03;5981103;29;20197;-76
2021/07/17 04:36:50;;;;;;;6.28;5.85;;;;;;;19.78;65.41;101923.53;5981647;29;20260;-76
2021/07/17 04:39:54;;;;;;;7.55;6.07;;;;;;;19.85;65.42;101917.84;5985339;29;20265;-76
2021/07/17 04:43:00;;;;;;;6.75;6.15;;;;;;;19.90;65.31;101915.97;5984604;29;20216;-76
2021/07/17 04:46:04;;;;;;;8.70;6.32;;;;;;;19.95;65.18;101918.81;5984043;29;20216;-76
2021/07/17 04:49:10;;;;;;;8.55;5.60;;;;;;;19.94;62.88;101925.47;5983873;29;20476;-76
2021/07/17 04:52:14;;;;;;;11.57;5.63;;;;;;;20.00;62.56;101918.88;5984130;29;20274;-76
2021/07/17 04:55:18;;;;;;;6.65;5.55;;;;;;;20.12;62.44;101917.97;5984422;29;20260;-76
2021/07/17 04:58:23;;;;;;;6.20;5.75;;;;;;;20.18;63.27;101916.97;5984726;29;20193;-76
2021/07/17 05:01:28;;;;;;;6.10;5.30;;;;;;;20.23;62.47;101914.25;5984942;29;20297;-76
2021/07/17 05:04:32;;;;;;;7.15;5.93;;;;;;;20.20;62.80;101914.75;5987105;29;20243;-76
2021/07/17 05:07:36;;;;;;;6.25;5.65;;;;;;;20.35;62.98;101912.22;5994088;29;20289;-75
2021/07/17 05:10:40;;;;;;;5.72;5.25;;;;;;;20.43;62.84;101909.03;5994789;29;20491;-74
2021/07/17 05:13:46;;;;;;;7.07;5.65;;;;;;;20.51;62.96;101911.34;5995444;29;20197;-75
2021/07/17 05:16:50;;;;;;;7.07;5.63;;;;;;;20.51;63.66;101922.44;5994464;29;20221;-75
2021/07/17 05:19:54;;;;;;;6.03;5.40;;;;;;;20.59;63.87;101903.41;5994165;29;20252;-75
2021/07/17 05:22:58;;;;;;;5.70;5.28;;;;;;;20.65;63.84;101896.00;5993862;29;20284;-75
2021/07/17 05:26:03;;;;;;;6.03;5.55;;;;;;;20.74;64.00;101904.72;5992827;29;20197;-74
2021/07/17 05:29:08;;;;;;;6.30;5.80;;;;;;;20.80;64.58;101910.03;5992802;29;20456;-74
2021/07/17 05:32:12;;;;;;;7.25;5.60;;;;;;;20.88;63.90;101901.28;5992223;29;20399;-74
2021/07/17 05:35:17;;;;;;;10.82;5.78;;;;;;;20.88;64.44;101900.44;5992959;29;20200;-75
2021/07/17 05:38:23;;;;;;;7.00;6.03;;;;;;;20.96;64.51;101898.03;5992774;29;20200;-75
2021/07/17 05:41:28;;;;;;;6.32;5.72;;;;;;;21.02;66.02;101887.84;5992513;29;20193;-75
2021/07/17 05:44:34;;;;;;;6.47;5.88;;;;;;;21.19;64.89;101892.22;5992771;29;20193;-76
2021/07/17 05:47:38;;;;;;;6.13;5.57;;;;;;;21.42;64.50;101879.94;5992577;29;20249;-75
2021/07/17 05:50:42;;;;;;;6.65;5.68;;;;;;;21.51;64.79;101871.97;5992840;29;20274;-75
2021/07/17 05:53:47;;;;;;;9.65;5.05;;;;;;;21.65;63.68;101884.28;5992117;29;20222;-75
2021/07/17 05:56:51;;;;;;;6.28;5.80;;;;;;;21.64;64.46;101865.97;5991648;29;20198;-75
2021/07/17 05:59:56;;;;;;;5.75;5.32;;;;;;;21.89;63.85;101880.09;5990174;29;20307;-77
2021/07/17 06:03:00;;;;;;;5.80;5.25;;;;;;;22.07;64.46;101871.31;5985233;29;20251;-75
2021/07/17 06:06:06;;;;;;;5.70;5.30;;;;;;;22.18;63.10;101872.22;5982675;29;20193;-77
2021/07/17 06:09:10;;;;;;;7.53;5.15;;;;;;;22.27;63.34;101874.22;5981612;29;20389;-76
2021/07/17 06:12:15;;;;;;;8.23;5.38;;;;;;;22.32;63.14;101863.13;5982361;29;20228;-77
2021/07/17 06:15:20;;;;;;;6.00;5.50;;;;;;;22.52;63.56;101867.09;5981623;29;20273;-76
2021/07/17 06:18:25;;;;;;;5.07;4.60;;;;;;;22.55;62.80;101869.31;5982540;29;20274;-76
2021/07/17 06:21:29;;;;;;;6.05;5.22;;;;;;;22.68;63.03;101866.06;5981667;29;20193;-77
2021/07/17 06:24:34;;;;;;;6.32;5.00;;;;;;;22.79;62.87;101856.66;5982302;29;20227;-77
2021/07/17 06:27:38;;;;;;;7.80;5.20;;;;;;;22.75;63.32;101861.91;5980990;29;20200;-75
2021/07/17 06:30:44;;;;;;;6.85;5.22;;;;;;;22.96;62.28;101858.09;5982456;29;20194;-76
2021/07/17 06:33:48;;;;;;;5.75;4.93;;;;;;;23.01;62.32;101848.91;5981850;29;20214;-76
2021/07/17 06:36:53;;;;;;;8.13;5.10;;;;;;;23.14;62.13;101853.94;5982490;29;20193;-76
2021/07/17 06:39:58;;;;;;;5.75;5.32;;;;;;;23.18;61.67;101848.66;5981588;29;20201;-76
2021/07/17 06:43:02;;;;;;;5.43;5.10;;;;;;;23.21;61.71;101854.53;5981871;29;20559;-76
2021/07/17 06:46:08;;;;;;;9.85;5.32;;;;;;;23.34;61.62;101848.41;5981423;29;20499;-76
2021/07/17 06:49:12;;;;;;;6.18;5.20;;;;;;;23.45;61.32;101838.13;5981830;29;20265;-76
2021/07/17 06:52:16;;;;;;;5.32;5.00;;;;;;;23.47;61.49;101847.06;5980888;29;20484;-75
2021/07/17 06:55:20;;;;;;;5.43;5.13;;;;;;;23.58;61.32;101835.63;5982565;29;20218;-77
2021/07/17 06:58:24;;;;;;;6.45;5.53;;;;;;;23.54;62.00;101826.16;5980124;29;20212;-76
2021/07/17 07:01:30;;;;;;;13.13;5.25;;;;;;;23.74;61.74;101818.88;5980202;29;20397;-76
2021/07/17 07:04:34;;;;;;;6.05;5.45;;;;;;;23.85;61.03;101821.38;5980888;29;20407;-76
2021/07/17 07:07:40;;;;;;;5.72;5.22;;;;;;;23.84;61.94;101804.94;5981967;29;20294;-76
2021/07/17 07:10:45;;;;;;;6.20;5.22;;;;;;;23.93;62.63;101811.63;5980465;29;20393;-76
2021/07/17 07:13:49;;;;;;;8.77;5.47;;;;;;;24.07;61.43;101807.09;5982687;29;20197;-76
2021/07/17 07:16:56;;;;;;;5.57;5.10;;;;;;;24.11;60.51;101808.25;5979939;29;20384;-76
2021/07/17 07:20:00;;;;;;;6.20;5.70;;;;;;;24.17;60.91;101804.31;5981006;29;20224;-76
2021/07/17 07:23:04;;;;;;;6.45;5.50;;;;;;;24.28;59.59;101809.59;5980505;29;20228;-76
2021/07/17 07:26:10;;;;;;;7.72;5.68;;;;;;;24.37;60.02;101795.84;5980804;29;20193;-76
2021/07/17 07:29:14;;;;;;;7.00;5.25;;;;;;;24.49;59.84;101793.59;5980009;29;20351;-76
2021/07/17 07:32:20;;;;;;;5.63;5.13;;;;;;;24.53;60.54;101786.31;5979697;29;20417;-76
2021/07/17 07:35:25;;;;;;;6.38;4.95;;;;;;;24.62;60.06;101787.38;5980671;29;20228;-76
2021/07/17 07:38:29;;;;;;;5.60;5.10;;;;;;;24.64;60.32;101789.88;5981046;29;20200;-76
2021/07/17 07:41:34;;;;;;;10.25;5.85;;;;;;;24.72;59.70;101787.31;5980768;29;20197;-76
2021/07/17 07:44:38;;;;;;;5.28;4.88;;;;;;;24.84;59.66;101790.63;5980342;29;20220;-76
2021/07/17 07:47:43;;;;;;;7.60;5.35;;;;;;;24.98;59.36;101785.22;5980702;29;20268;-76
2021/07/17 07:50:48;;;;;;;5.13;4.75;;;;;;;24.98;58.63;101789.97;5980453;29;20209;-77
2021/07/17 07:53:52;;;;;;;6.55;5.00;;;;;;;25.09;58.40;101781.22;5980428;29;20276;-76
2021/07/17 07:56:57;;;;;;;5.32;4.93;;;;;;;25.16;58.49;101780.91;5979596;29;20194;-76
2021/07/17 08:00:01;;;;;;;9.68;5.50;;;;;;;25.28;57.87;101767.38;5979599;29;20205;-76
2021/07/17 08:03:16;;;;;;;8.68;4.65;;;;;;;25.29;56.51;101769.91;5979961;29;20549;-77
2021/07/17 08:06:21;;;;;;;5.40;4.72;;;;;;;25.28;56.22;101770.16;5981009;29;20193;-77
2021/07/17 08:09:25;;;;;;;5.32;5.03;;;;;;;25.26;56.91;101764.88;5981439;29;20201;-76
2021/07/17 08:12:31;;;;;;;6.75;5.13;;;;;;;25.31;57.38;101764.00;5983163;29;20419;-76
2021/07/17 08:15:36;;;;;;;8.68;5.40;;;;;;;25.29;57.76;101757.88;5985611;29;20491;-76
2021/07/17 08:18:41;;;;;;;5.65;5.15;;;;;;;25.34;55.79;101750.28;5985310;29;20200;-75
2021/07/17 08:21:45;;;;;;;5.63;5.22;;;;;;;25.34;55.79;101744.72;5984005;29;20237;-76
2021/07/17 08:24:49;;;;;;;5.18;4.80;;;;;;;25.48;56.00;101750.44;5984451;29;20221;-76
2021/07/17 08:27:53;;;;;;;5.05;4.60;;;;;;;25.48;55.72;101739.28;5985186;29;20232;-76
2021/07/17 08:30:58;;;;;;;7.30;4.68;;;;;;;25.52;54.82;101745.97;5986761;29;20228;-76
2021/07/17 08:34:03;;;;;;;5.50;4.65;;;;;;;25.57;54.80;101743.09;5985653;29;20197;-75
2021/07/17 08:37:07;;;;;;;5.60;4.90;;;;;;;25.67;54.93;101759.78;5985065;29;20199;-76
2021/07/17 08:40:12;;;;;;;5.35;5.07;;;;;;;25.68;54.65;101750.22;5984883;29;20193;-77
2021/07/17 08:43:16;;;;;;;8.27;5.72;;;;;;;25.67;54.28;101731.81;5984429;29;20193;-77
2021/07/17 08:46:21;;;;;;;7.00;5.43;;;;;;;25.74;54.13;101743.47;5983780;29;20242;-77
2021/07/17 08:49:32;;;;;;;5.20;4.57;;;;;;;25.72;52.91;101734.56;5983528;29;20246;-76
2021/07/17 08:52:37;;;;;;;4.75;4.50;;;;;;;25.81;52.83;101743.94;5983180;29;20193;-76
2021/07/17 08:55:41;;;;;;;6.18;4.65;;;;;;;25.91;53.22;101741.03;5984127;29;20197;-77
2021/07/17 08:58:48;;;;;;;5.35;4.97;;;;;;;25.96;53.31;101734.56;5983529;29;20197;-76
2021/07/17 09:01:52;;;;;;;6.85;4.93;;;;;;;26.02;52.83;101722.16;5984032;29;20208;-76
2021/07/17 09:04:57;;;;;;;19.10;5.38;;;;;;;26.06;52.29;101726.84;5983811;29;20221;-76
2021/07/17 09:08:02;;;;;;;5.13;4.70;;;;;;;26.10;51.94;101724.31;5991697;29;20320;-76
2021/07/17 09:11:12;;;;;;;5.43;4.93;;;;;;;26.09;51.85;101729.06;5995742;29;20185;-75
2021/07/17 09:14:35;;;;;;;5.55;5.22;;;;;;;26.13;52.35;101728.50;5996519;29;20320;-77
2021/07/17 09:17:39;;;;;;;5.13;4.82;;;;;;;26.17;51.83;101729.59;5984730;29;20198;-78
2021/07/17 09:20:55;;;;;;;5.10;4.70;;;;;;;26.17;51.01;101729.59;5983517;29;20475;-77
2021/07/17 09:24:01;;;;;;;6.38;5.25;;;;;;;26.23;51.42;101722.75;5983228;29;20224;-77
2021/07/17 09:27:06;;;;;;;5.22;4.70;;;;;;;26.21;51.49;101713.84;5985573;29;20193;-77
2021/07/17 09:30:31;;;;;;;5.13;4.88;;;;;;;26.24;52.06;101711.28;5986889;29;20200;-76
2021/07/17 09:33:36;;;;;;;5.53;5.10;;;;;;;26.18;52.64;101708.84;5983730;29;20202;-77
2021/07/17 09:36:52;;;;;;;5.85;5.40;;;;;;;26.22;51.67;101705.16;5983215;29;20192;-78
2021/07/17 09:39:56;;;;;;;5.82;5.35;;;;;;;26.23;51.71;101701.22;5983022;29;20201;-76
2021/07/17 09:43:00;;;;;;;6.18;5.68;;;;;;;26.29;52.52;101702.00;5982617;29;20192;-76
2021/07/17 09:46:22;;;;;;;5.35;4.95;;;;;;;26.33;52.34;101703.03;5981225;29;20445;-76
2021/07/17 09:49:28;;;;;;;6.45;5.95;;;;;;;26.39;52.07;101699.03;5982439;29;20250;-77
2021/07/17 09:52:41;;;;;;;6.25;5.85;;;;;;;26.44;52.23;101690.56;5981661;29;20361;-77
2021/07/17 09:55:45;;;;;;;6.18;5.63;;;;;;;26.39;52.14;101682.25;5982700;29;20212;-77
2021/07/17 09:58:50;;;;;;;7.05;6.53;;;;;;;26.46;52.54;101693.91;5982435;29;20234;-77
2021/07/17 10:01:54;;;;;;;6.03;5.63;;;;;;;26.51;53.38;101691.03;5981403;29;20289;-77
2021/07/17 10:04:59;;;;;;;5.82;5.60;;;;;;;26.53;53.13;101691.53;5981107;29;20338;-76
2021/07/17 10:08:13;;;;;;;6.50;6.00;;;;;;;26.55;52.51;101678.09;5982234;29;20193;-77
2021/07/17 10:11:23;;;;;;;6.57;5.95;;;;;;;26.44;53.35;101679.38;5981558;29;20356;-75
2021/07/17 10:14:32;;;;;;;6.70;6.07;;;;;;;26.48;54.39;101675.66;5982265;29;20230;-77
2021/07/17 10:17:38;;;;;;;6.45;6.03;;;;;;;26.50;52.98;101667.78;5982061;29;20193;-77
2021/07/17 10:20:42;;;;;;;6.57;6.03;;;;;;;26.58;53.02;101657.88;5980611;29;20532;-76
2021/07/17 10:23:48;;;;;;;6.45;5.82;;;;;;;26.57;52.07;101661.84;5981174;29;20197;-77
2021/07/17 10:26:54;;;;;;;6.20;5.90;;;;;;;26.67;51.82;101656.06;5982040;29;20248;-76
2021/07/17 10:29:59;;;;;;;6.68;6.13;;;;;;;26.71;51.68;101652.34;5981988;29;20235;-76
2021/07/17 10:33:04;;;;;;;7.75;6.15;;;;;;;26.79;52.23;101641.63;5980886;29;20219;-78
2021/07/17 10:36:15;;;;;;;6.13;5.75;;;;;;;26.80;52.69;101649.72;5982021;29;20197;-76
2021/07/17 10:39:24;;;;;;;7.90;5.93;;;;;;;26.89;52.62;101642.28;5980739;29;20216;-77
2021/07/17 10:42:29;;;;;;;6.55;6.05;;;;;;;26.93;51.78;101640.53;5982322;29;20264;-77
2021/07/17 10:45:38;;;;;;;6.68;6.07;;;;;;;26.94;51.66;101644.19;5980954;29;20470;-77
2021/07/17 10:48:53;;;;;;;6.50;6.20;;;;;;;27.00;52.18;101645.72;5980977;29;20513;-77
2021/07/17 10:51:59;;;;;;;6.35;5.95;;;;;;;27.04;51.12;101638.38;5981730;29;20429;-77
2021/07/17 10:55:28;;;;;;;6.75;6.05;;;;;;;26.86;52.17;101630.88;5983244;29;20197;-76
2021/07/17 10:58:36;;;;;;;6.50;5.97;;;;;;;26.79;52.40;101631.25;5982333;29;20200;-77
2021/07/17 11:02:03;;;;;;;6.72;6.22;;;;;;;26.87;53.73;101627.75;5980410;29;20266;-76
2021/07/17 11:05:08;;;;;;;6.25;5.85;;;;;;;26.94;53.31;101628.19;5979127;29;20280;-77
2021/07/17 11:08:33;;;;;;;6.50;6.10;;;;;;;27.07;52.28;101621.78;5981085;29;20193;-76
2021/07/17 11:11:38;;;;;;;6.88;6.45;;;;;;;27.08;51.70;101623.47;5980039;29;20497;-76
2021/07/17 11:14:43;;;;;;;6.85;6.18;;;;;;;27.17;51.42;101618.78;5979965;29;20387;-76
2021/07/17 11:17:48;;;;;;;6.65;6.05;;;;;;;27.23;51.94;101606.34;5979827;29;20543;-76
2021/07/17 11:20:58;;;;;;;7.85;5.97;;;;;;;27.31;51.46;101616.84;5981222;29;20261;-77
2021/07/17 11:24:06;;;;;;;6.28;5.72;;;;;;;27.24;52.32;101598.78;5979571;29;20461;-77
2021/07/17 11:27:14;;;;;;;6.25;5.85;;;;;;;27.16;52.33;101605.94;5979762;29;20233;-77
2021/07/17 11:30:20;;;;;;;6.07;5.75;;;;;;;27.12;52.38;101604.88;5980598;29;20224;-77
2021/07/17 11:33:24;;;;;;;6.20;5.68;;;;;;;27.32;52.78;101595.28;5980758;29;20193;-77
2021/07/17 11:36:28;;;;;;;5.93;5.63;;;;;;;27.34;51.65;101585.41;5980744;29;20197;-76
2021/07/17 11:39:34;;;;;;;7.22;5.78;;;;;;;27.31;51.73;101576.78;5980690;29;20193;-76
2021/07/17 11:42:40;;;;;;;5.80;5.50;;;;;;;27.43;52.26;101573.47;5979200;29;20260;-76
2021/07/17 11:45:46;;;;;;;5.50;5.30;;;;;;;27.50;52.48;101571.09;5980150;29;20224;-77
2021/07/17 11:49:01;;;;;;;5.93;5.63;;;;;;;27.59;52.46;101569.22;5979825;29;20193;-77
2021/07/17 11:52:07;;;;;;;6.60;5.90;;;;;;;27.70;52.97;101567.88;5978096;29;20522;-76
2021/07/17 11:55:13;;;;;;;6.85;5.47;;;;;;;27.71;52.12;101563.91;5979941;29;20456;-76
2021/07/17 11:58:20;;;;;;;6.22;5.75;;;;;;;27.76;52.75;101566.63;5979774;29;20201;-76
2021/07/17 12:01:24;;;;;;;6.30;5.72;;;;;;;27.74;52.42;101557.66;5979655;29;20447;-77
2021/07/17 12:04:29;;;;;;;6.50;5.90;;;;;;;27.81;52.42;101535.66;5977934;29;20539;-77
2021/07/17 12:07:35;;;;;;;6.93;6.13;;;;;;;27.79;51.74;101544.38;5978835;29;20221;-76
2021/07/17 12:10:39;;;;;;;6.72;6.20;;;;;;;27.80;51.96;101556.41;5980532;29;20205;-76
2021/07/17 12:13:45;;;;;;;8.00;5.88;;;;;;;27.79;52.05;101549.13;5980090;29;20268;-76
2021/07/17 12:16:49;;;;;;;6.57;6.00;;;;;;;27.95;52.29;101542.03;5978904;29;20503;-76
2021/07/17 12:20:03;;;;;;;6.68;6.10;;;;;;;28.00;52.55;101539.09;5979700;29;20242;-76
2021/07/17 12:23:11;;;;;;;10.45;6.00;;;;;;;28.03;52.39;101532.91;5979989;29;20204;-76
2021/07/17 12:26:18;;;;;;;6.85;5.90;;;;;;;28.05;52.60;101530.59;5980098;29;20217;-76
2021/07/17 12:29:23;;;;;;;6.40;5.93;;;;;;;28.02;52.34;101528.44;5979880;29;20229;-76
2021/07/17 12:32:28;;;;;;;7.57;5.65;;;;;;;28.15;52.56;101524.75;5978649;29;20386;-76
2021/07/17 12:35:32;;;;;;;6.55;5.70;;;;;;;28.14;51.70;101525.91;5980206;29;20225;-76
2021/07/17 12:38:38;;;;;;;6.70;5.88;;;;;;;28.23;51.64;101526.78;5979674;29;20268;-76
2021/07/17 12:41:42;;;;;;;6.93;6.32;;;;;;;28.24;51.95;101525.66;5979845;29;20233;-76
2021/07/17 12:44:56;;;;;;;6.28;5.72;;;;;;;28.23;52.42;101526.78;5979747;29;20200;-76
2021/07/17 12:48:01;;;;;;;6.07;5.78;;;;;;;28.29;51.94;101514.31;5978694;29;20625;-77
2021/07/17 12:51:12;;;;;;;6.93;6.45;;;;;;;28.30;51.77;101515.94;5978788;29;20197;-76
2021/07/17 12:54:18;;;;;;;6.70;6.10;;;;;;;28.35;52.16;101504.59;5978526;29;20201;-77
2021/07/17 12:57:22;;;;;;;7.00;6.32;;;;;;;28.42;51.59;101507.78;5978644;29;20229;-76
2021/07/17 13:00:27;;;;;;;6.60;6.10;;;;;;;28.40;51.12;101507.25;5982682;29;20503;-76
2021/07/17 13:03:33;;;;;;;6.43;6.03;;;;;;;28.51;50.83;101499.41;5982760;29;20530;-77
2021/07/17 13:06:38;;;;;;;6.82;6.25;;;;;;;28.34;51.57;101491.72;5982475;29;20217;-77
2021/07/17 13:09:49;;;;;;;7.10;6.25;;;;;;;28.41;51.26;101494.91;5982585;29;20198;-77
2021/07/17 13:12:53;;;;;;;7.25;6.35;;;;;;;28.47;50.89;101488.00;5983670;29;20210;-76
2021/07/17 13:15:59;;;;;;;6.60;6.10;;;;;;;28.62;50.71;101483.97;5982320;29;20260;-76
2021/07/17 13:19:08;;;;;;;6.53;6.03;;;;;;;28.54;50.64;101471.53;5983412;29;20306;-76
2021/07/17 13:22:14;;;;;;;6.72;5.97;;;;;;;28.68;50.32;101479.91;5982243;29;20499;-76
2021/07/17 13:25:38;;;;;;;6.97;5.53;;;;;;;28.75;49.93;101471.00;5983343;29;20194;-76
2021/07/17 13:28:42;;;;;;;8.05;6.60;;;;;;;28.84;50.40;101463.44;5981032;29;20412;-76
2021/07/17 13:31:59;;;;;;;12.00;6.80;;;;;;;28.75;51.15;101459.75;5982378;29;20211;-76
2021/07/17 13:35:18;;;;;;;7.07;6.47;;;;;;;28.74;50.75;101455.28;5982733;29;20193;-75
2021/07/17 13:38:23;;;;;;;7.25;6.60;;;;;;;28.81;50.86;101458.47;5982597;29;20237;-76
2021/07/17 13:41:27;;;;;;;7.53;6.00;;;;;;;29.04;50.15;101446.00;5982774;29;20228;-76
2021/07/17 13:44:32;;;;;;;6.80;6.10;;;;;;;29.95;48.22;101449.63;5982798;29;20228;-75
2021/07/17 13:47:40;;;;;;;6.40;5.75;;;;;;;31.17;45.10;101435.66;5982364;29;20216;-76
2021/07/17 13:50:46;;;;;;;6.18;5.72;;;;;;;31.56;43.95;101431.63;5982450;29;20200;-76
2021/07/17 13:53:50;;;;;;;7.00;6.35;;;;;;;30.92;44.85;101440.28;5980499;29;20209;-75
2021/07/17 13:56:54;;;;;;;6.82;6.20;;;;;;;31.26;43.95;101429.97;5981109;29;20419;-76
2021/07/17 14:00:03;;;;;;;6.38;5.47;;;;;;;32.01;43.39;101426.91;5982610;29;20193;-76
2021/07/17 14:03:16;;;;;;;9.68;6.00;;;;;;;32.58;41.67;101424.16;5981313;29;20408;-76
2021/07/17 14:06:21;;;;;;;6.13;5.72;;;;;;;32.45;42.05;101419.63;5981121;29;20223;-75
2021/07/17 14:09:25;;;;;;;6.25;5.85;;;;;;;31.98;43.76;101421.94;5981539;29;20260;-76
2021/07/17 14:12:30;;;;;;;7.25;5.78;;;;;;;31.65;43.94;101406.97;5982056;29;20193;-76
2021/07/17 14:15:36;;;;;;;7.00;6.50;;;;;;;30.97;44.81;101409.09;5982406;29;20197;-76
2021/07/17 14:18:42;;;;;;;6.07;5.70;;;;;;;30.91;44.12;101402.00;5981155;29;20434;-76
2021/07/17 14:21:46;;;;;;;6.78;6.38;;;;;;;30.51;44.77;101411.94;5981873;29;20200;-77
2021/07/17 14:24:51;;;;;;;6.40;5.70;;;;;;;30.33;46.03;101405.50;5981427;29;20459;-77